LGZA/ZTH METAR and TAF weather

Enter ICAO airport designator
Station Type Date Time Source
LGZA METAR 2020/01/28 17:50 UTC NOAA

LGZA 281750Z VRB02KT 9999 FEW015 SCT020 13/10 Q1019


Station Type Date Time Source
LGZA Decoded METAR 2020/01/28 17:50 UTC NOAA

Zakinthos Airport , Greece (LGZA) 37-45N 020-53E
Jan 28, 2020 - 12:50 PM EST / 2020.01.28 1750 UTC
Wind: Variable at 2 MPH (2 KT):0
Visibility: greater than 7 mile(s):0
Sky conditions: partly cloudy
Temperature: 55 F (13 C)
Dew Point: 50 F (10 C)
Relative Humidity: 81%
Pressure (altimeter): 30.09 in. Hg (1019 hPa)
ob: LGZA 281750Z VRB02KT 9999 FEW015 SCT020 13/10 Q1019
cycle: 18

Station Type Date Time Source
LGZA TAF 2011/11/25 15:06 UTC NOAA

TAF TAF LGZA 251400Z 2515/2603 02012KT 9999 FEW025 SCT035 BKN080 PROB30
TEMPO 2518/2603 8000 RA PROB30 2522/2603 5000 BR SCT010

Example: see airport list